createdAt,value
2023-01-30T00:01:03.718Z,100062.59
2023-01-30T00:03:30.976Z,100050.00
2023-01-30T00:05:57.423Z,100052.47
2023-01-30T00:08:24.006Z,100049.72
2023-01-30T00:10:50.516Z,100039.59
2023-01-30T00:13:17.195Z,100035.22
2023-01-30T00:15:44.034Z,100034.13
2023-01-30T00:18:10.610Z,100026.72
2023-01-30T00:20:37.119Z,100023.44
2023-01-30T00:23:04.070Z,100017.41
2023-01-30T00:25:31.636Z,100014.16
2023-01-30T00:28:01.799Z,100021.25
2023-01-30T00:30:28.965Z,100019.88
2023-01-30T00:32:59.072Z,100004.81
2023-01-30T00:35:28.620Z,100000.97
2023-01-30T00:37:58.866Z,100003.72
2023-01-30T00:40:26.994Z,99995.50
2023-01-30T00:43:12.723Z,99984.28
2023-01-30T00:45:59.991Z,99968.66
2023-01-30T00:48:26.583Z,99953.34
2023-01-30T00:50:53.099Z,99945.38
2023-01-30T00:53:19.510Z,99953.88
2023-01-30T00:55:46.011Z,99944.00
2023-01-30T00:58:13.462Z,99947.88
2023-01-30T01:00:40.381Z,99959.91
2023-01-30T01:03:08.016Z,99962.88
2023-01-30T01:05:34.629Z,99970.81
2023-01-30T01:08:01.288Z,99970.81
2023-01-30T01:10:27.847Z,99959.25
2023-01-30T01:12:54.319Z,99951.63
2023-01-30T01:15:22.598Z,99942.88
2023-01-30T01:17:49.756Z,99938.16
2023-01-30T01:20:16.887Z,99932.66
2023-01-30T01:22:43.488Z,99933.75
2023-01-30T01:25:10.699Z,99915.44
2023-01-30T01:27:38.403Z,99899.81
2023-01-30T01:30:05.982Z,99892.13
2023-01-30T01:32:32.750Z,99887.50
2023-01-30T01:34:59.246Z,99871.03
2023-01-30T01:37:25.772Z,99877.66
2023-01-30T01:40:10.871Z,99867.81
2023-01-30T01:42:38.740Z,99871.66
2023-01-30T01:45:18.014Z,99859.59
2023-01-30T01:48:40.666Z,99856.78
2023-01-30T01:51:15.030Z,99852.94
2023-01-30T01:53:49.504Z,99829.34
2023-01-30T01:56:18.524Z,99817.88
2023-01-30T01:58:48.191Z,99823.59
2023-01-30T02:01:14.942Z,99809.38
2023-01-30T02:03:45.823Z,99792.13
2023-01-30T02:06:13.878Z,99765.44
2023-01-30T02:08:44.964Z,99767.53
2023-01-30T02:11:17.714Z,99764.16
2023-01-30T02:13:45.469Z,99746.19
2023-01-30T02:16:12.008Z,99764.56
2023-01-30T02:18:41.574Z,99766.13
2023-01-30T02:21:51.522Z,99765.25
2023-01-30T02:24:42.212Z,99757.50
2023-01-30T02:27:14.975Z,99749.34
2023-01-30T02:30:06.725Z,99758.13
2023-01-30T02:32:34.696Z,99734.91
2023-01-30T02:35:05.582Z,99748.53
2023-01-30T02:38:01.395Z,99750.97
2023-01-30T02:40:44.513Z,99759.72
2023-01-30T02:43:28.242Z,99761.25
2023-01-30T02:46:08.932Z,99775.69
2023-01-30T02:48:53.845Z,99767.94
2023-01-30T02:51:23.953Z,99753.44
2023-01-30T02:53:51.050Z,99735.81
2023-01-30T02:56:18.067Z,99719.28
2023-01-30T02:58:49.446Z,99721.47
2023-01-30T03:01:39.942Z,99714.84
2023-01-30T03:04:18.440Z,99702.47
2023-01-30T03:07:22.691Z,99697.38
2023-01-30T03:10:21.695Z,99683.75
2023-01-30T03:12:52.990Z,99692.94
2023-01-30T03:15:27.631Z,99676.69
2023-01-30T03:17:54.737Z,99670.91
2023-01-30T03:20:22.056Z,99667.28
2023-01-30T03:22:48.864Z,99654.09
2023-01-30T03:25:19.643Z,99633.41
2023-01-30T03:27:46.559Z,99623.72
2023-01-30T03:30:13.759Z,99624.84
2023-01-30T03:32:40.265Z,99607.53
2023-01-30T03:35:07.140Z,99620.41
2023-01-30T03:37:33.903Z,99608.41
2023-01-30T03:40:00.641Z,99598.25
2023-01-30T03:42:27.211Z,99604.66
2023-01-30T03:44:53.637Z,99589.22
2023-01-30T03:47:20.136Z,99576.00
2023-01-30T03:49:46.726Z,99577.25
2023-01-30T03:52:13.244Z,99597.56
2023-01-30T03:54:39.648Z,99587.94
2023-01-30T03:57:06.114Z,99601.84
2023-01-30T03:59:32.614Z,99588.03
2023-01-30T04:01:59.096Z,99603.38
2023-01-30T04:04:25.452Z,99598.25
2023-01-30T04:06:51.878Z,99595.78
2023-01-30T04:09:18.366Z,99589.41
2023-01-30T04:11:44.922Z,99573.56
2023-01-30T04:14:11.467Z,99571.84
2023-01-30T04:16:38.146Z,99553.22
2023-01-30T04:19:04.649Z,99564.72
2023-01-30T04:21:31.030Z,99551.69
2023-01-30T04:23:57.449Z,99538.38
2023-01-30T04:26:24.030Z,99535.22
2023-01-30T04:28:50.460Z,99522.81
2023-01-30T04:31:17.041Z,99523.03
2023-01-30T04:33:43.558Z,99518.34
2023-01-30T04:36:10.772Z,99520.78
2023-01-30T04:38:37.742Z,99505.75
2023-01-30T04:41:04.432Z,99512.25
2023-01-30T04:43:31.304Z,99507.25
2023-01-30T04:45:57.762Z,99501.44
2023-01-30T04:48:25.495Z,99493.59
2023-01-30T04:50:54.642Z,99489.97
2023-01-30T04:53:21.525Z,99481.09
2023-01-30T04:55:48.268Z,99486.19
2023-01-30T04:58:15.677Z,99483.50
2023-01-30T05:00:42.489Z,99481.56
2023-01-30T05:03:08.927Z,99480.13
2023-01-30T05:05:35.297Z,99455.28
2023-01-30T05:08:02.179Z,99436.38
2023-01-30T05:10:29.054Z,99438.38
2023-01-30T05:12:55.560Z,99428.81
2023-01-30T05:15:21.995Z,99438.19
2023-01-30T05:17:48.459Z,99413.50
2023-01-30T05:20:15.093Z,99417.69
2023-01-30T05:22:41.546Z,99412.19
2023-01-30T05:25:09.204Z,99405.91
2023-01-30T05:27:35.755Z,99402.97
2023-01-30T05:30:02.207Z,99396.16
2023-01-30T05:32:31.081Z,99401.66
2023-01-30T05:34:57.619Z,99385.66
2023-01-30T05:37:24.654Z,99393.47
2023-01-30T05:39:51.379Z,99402.81
2023-01-30T05:42:17.844Z,99369.41
2023-01-30T05:44:44.584Z,99376.59
2023-01-30T05:47:11.397Z,99383.84
2023-01-30T05:49:38.292Z,99370.78
2023-01-30T05:52:05.005Z,99367.56
2023-01-30T05:54:31.394Z,99349.56
2023-01-30T05:56:57.809Z,99361.56
2023-01-30T05:59:24.293Z,99349.31
2023-01-30T06:01:50.909Z,99346.72
2023-01-30T06:04:17.479Z,99342.84
2023-01-30T06:06:43.865Z,99359.34
2023-01-30T06:09:10.599Z,99362.28
2023-01-30T06:11:37.334Z,99356.16
2023-01-30T06:14:03.783Z,99363.59
2023-01-30T06:16:30.853Z,99350.78
2023-01-30T06:18:57.361Z,99344.50
2023-01-30T06:21:23.799Z,99334.66
2023-01-30T06:23:50.245Z,99337.84
2023-01-30T06:26:16.771Z,99354.03
2023-01-30T06:28:43.447Z,99338.84
2023-01-30T06:31:10.021Z,99345.66
2023-01-30T06:33:36.792Z,99330.13
2023-01-30T06:36:03.673Z,99338.69
2023-01-30T06:38:30.128Z,99330.94
2023-01-30T06:40:56.578Z,99333.38
2023-01-30T06:43:22.980Z,99340.16
2023-01-30T06:45:49.414Z,99338.19
2023-01-30T06:48:15.891Z,99338.53
2023-01-30T06:50:42.326Z,99333.84
2023-01-30T06:53:08.938Z,99342.53
2023-01-30T06:55:35.979Z,99345.28
2023-01-30T06:58:04.526Z,99345.44
2023-01-30T07:00:31.526Z,99345.25
2023-01-30T07:02:57.988Z,99335.69
2023-01-30T07:05:24.509Z,99342.72
2023-01-30T07:07:50.978Z,99341.56
2023-01-30T07:10:17.767Z,99337.69
2023-01-30T07:12:46.453Z,99333.75
2023-01-30T07:15:13.281Z,99332.63
2023-01-30T07:17:41.272Z,99326.50
2023-01-30T07:20:09.349Z,99327.69
2023-01-30T07:22:35.823Z,99320.97
2023-01-30T07:25:02.269Z,99322.31
2023-01-30T07:27:28.738Z,99321.66
2023-01-30T07:29:55.155Z,99328.50
2023-01-30T07:32:21.629Z,99321.41
2023-01-30T07:34:48.400Z,99317.88
2023-01-30T07:37:15.309Z,99314.47
2023-01-30T07:39:41.989Z,99313.53
2023-01-30T07:42:08.720Z,99314.72
2023-01-30T07:44:35.254Z,99316.00
2023-01-30T07:47:01.900Z,99318.13
2023-01-30T07:49:28.459Z,99313.59
2023-01-30T07:51:54.866Z,99307.28
2023-01-30T07:54:21.288Z,99311.03
2023-01-30T07:56:47.667Z,99311.50
2023-01-30T07:59:14.121Z,99316.69
2023-01-30T08:01:40.628Z,99299.38
2023-01-30T08:04:07.107Z,99306.31
2023-01-30T08:06:38.883Z,99301.16
2023-01-30T08:09:06.604Z,99314.75
2023-01-30T08:11:33.590Z,99309.56
2023-01-30T08:14:00.000Z,99294.22
2023-01-30T08:16:26.580Z,99294.53
2023-01-30T08:18:53.067Z,99309.13
2023-01-30T08:21:19.564Z,99309.88
2023-01-30T08:23:45.990Z,99315.88
2023-01-30T08:26:12.456Z,99297.72
2023-01-30T08:28:39.374Z,99314.19
2023-01-30T08:31:10.431Z,99306.56
2023-01-30T08:33:36.956Z,99307.59
2023-01-30T08:36:03.516Z,99302.09
2023-01-30T08:38:29.939Z,99314.06
2023-01-30T08:40:58.012Z,99287.53
2023-01-30T08:43:24.420Z,99297.88
2023-01-30T08:45:54.343Z,99289.00
2023-01-30T08:48:20.767Z,99298.09
2023-01-30T08:50:47.339Z,99298.75
2023-01-30T08:53:14.154Z,99294.22
2023-01-30T08:55:40.585Z,99277.06
2023-01-30T08:58:07.001Z,99286.13
2023-01-30T09:00:33.420Z,99286.97
2023-01-30T09:03:00.554Z,99277.91
2023-01-30T09:05:27.029Z,99287.47
2023-01-30T09:07:53.506Z,99282.94
2023-01-30T09:10:20.221Z,99288.94
2023-01-30T09:12:46.960Z,99290.06
2023-01-30T09:15:13.831Z,99291.84
2023-01-30T09:17:40.358Z,99288.59
2023-01-30T09:20:11.213Z,99296.38
2023-01-30T09:22:38.268Z,99285.69
2023-01-30T09:25:05.835Z,99280.34
2023-01-30T09:27:32.719Z,99293.16
2023-01-30T09:29:59.151Z,99293.81
2023-01-30T09:32:25.616Z,99283.41
2023-01-30T09:34:52.097Z,99294.28
2023-01-30T09:37:18.579Z,99299.94
2023-01-30T09:39:44.989Z,99292.50
2023-01-30T09:42:23.696Z,99302.88
2023-01-30T09:45:05.327Z,99273.53
2023-01-30T09:48:05.553Z,99278.06
2023-01-30T09:50:53.847Z,99270.59
2023-01-30T09:53:51.212Z,99259.34
2023-01-30T09:56:17.852Z,99264.97
2023-01-30T09:58:58.766Z,99267.50
2023-01-30T10:01:53.334Z,99256.59
2023-01-30T10:04:43.881Z,99236.41
2023-01-30T10:07:32.229Z,99223.22
2023-01-30T10:10:29.779Z,99226.75
2023-01-30T10:13:03.142Z,99218.91
2023-01-30T10:15:47.962Z,99209.66
2023-01-30T10:18:21.645Z,99183.34
2023-01-30T10:21:25.309Z,99218.00
2023-01-30T10:24:07.720Z,99215.50
2023-01-30T10:26:34.616Z,99226.69
2023-01-30T10:29:21.628Z,99200.53
2023-01-30T10:32:05.093Z,99218.31
2023-01-30T10:34:33.065Z,99230.97
2023-01-30T10:37:02.476Z,99236.94
2023-01-30T10:39:55.532Z,99220.22
2023-01-30T10:42:34.740Z,99232.16
2023-01-30T10:45:20.625Z,99232.84
2023-01-30T10:48:00.231Z,99240.69
2023-01-30T10:50:36.851Z,99248.19
2023-01-30T10:53:17.307Z,99259.03
2023-01-30T10:55:48.932Z,99248.50
2023-01-30T10:58:41.286Z,99243.75
2023-01-30T11:01:32.258Z,99249.44
2023-01-30T11:04:15.320Z,99246.25
2023-01-30T11:06:42.199Z,99241.13
2023-01-30T11:09:08.853Z,99241.63
2023-01-30T11:11:48.617Z,99235.88
2023-01-30T11:14:15.422Z,99234.44
2023-01-30T11:16:50.587Z,99248.78
2023-01-30T11:19:21.978Z,99223.59
2023-01-30T11:21:51.964Z,99249.56
2023-01-30T11:24:24.677Z,99242.47
2023-01-30T11:26:53.104Z,99240.63
2023-01-30T11:29:28.603Z,99230.28
2023-01-30T11:31:55.910Z,99237.28
2023-01-30T11:34:23.773Z,99227.25
2023-01-30T11:36:50.696Z,99232.91
2023-01-30T11:39:21.090Z,99230.00
2023-01-30T11:41:53.748Z,99221.88
2023-01-30T11:44:29.811Z,99214.56
2023-01-30T11:47:02.644Z,99228.38
2023-01-30T11:50:00.634Z,99208.56
2023-01-30T11:52:24.874Z,99207.75
2023-01-30T11:54:52.280Z,99209.09
2023-01-30T11:57:20.142Z,99208.91
2023-01-30T11:59:55.760Z,99210.56
2023-01-30T12:02:30.151Z,99209.41
2023-01-30T12:05:17.071Z,99206.66
2023-01-30T12:07:46.633Z,99193.63
2023-01-30T12:10:31.397Z,99197.34
2023-01-30T12:13:04.792Z,99190.41
2023-01-30T12:15:35.292Z,99179.25
2023-01-30T12:18:14.384Z,99179.84
2023-01-30T12:20:58.932Z,99169.00
2023-01-30T12:23:47.312Z,99151.56
2023-01-30T12:26:35.424Z,99141.09
2023-01-30T12:29:27.193Z,99143.03
2023-01-30T12:32:06.560Z,99143.84
2023-01-30T12:34:33.213Z,99149.16
2023-01-30T12:37:18.017Z,99144.63
2023-01-30T12:39:58.063Z,99147.25
2023-01-30T12:43:06.384Z,99137.34
2023-01-30T12:45:34.717Z,99146.53
2023-01-30T12:48:13.313Z,99144.19
2023-01-30T12:51:07.098Z,99143.50
2023-01-30T12:53:38.966Z,99127.75
2023-01-30T12:56:21.501Z,99136.81
2023-01-30T12:59:15.031Z,99145.53
2023-01-30T13:01:58.321Z,99145.31
2023-01-30T13:04:34.471Z,99138.88
2023-01-30T13:07:17.039Z,99134.31
2023-01-30T13:10:02.006Z,99148.78
2023-01-30T13:12:43.250Z,99131.38
2023-01-30T13:15:25.725Z,99119.94
2023-01-30T13:18:20.971Z,99131.94
2023-01-30T13:20:55.295Z,99124.91
2023-01-30T13:23:31.708Z,99147.28
2023-01-30T13:26:05.694Z,99127.16
2023-01-30T13:28:40.180Z,99115.25
2023-01-30T13:31:10.296Z,99127.66
2023-01-30T13:33:39.312Z,99122.75
2023-01-30T13:36:11.556Z,99127.16
2023-01-30T13:38:42.146Z,99121.56
2023-01-30T13:41:10.022Z,99116.38
2023-01-30T13:43:39.096Z,99131.03
2023-01-30T13:46:11.275Z,99122.56
2023-01-30T13:49:03.091Z,99123.25
2023-01-30T13:51:42.248Z,99131.25
2023-01-30T13:54:42.977Z,99132.97
2023-01-30T13:57:27.877Z,99132.13
2023-01-30T14:00:25.987Z,99126.94
2023-01-30T14:03:07.833Z,99127.97
2023-01-30T14:05:57.335Z,99153.16
2023-01-30T14:08:29.305Z,99141.41
2023-01-30T14:10:56.872Z,99139.72
2023-01-30T14:13:25.268Z,99130.03
2023-01-30T14:16:04.351Z,99121.50
2023-01-30T14:18:34.052Z,99129.66
2023-01-30T14:21:12.560Z,99127.84
2023-01-30T14:23:40.041Z,99130.13
2023-01-30T14:26:06.441Z,99147.03
2023-01-30T14:28:32.842Z,99136.09
2023-01-30T14:31:01.583Z,99141.06
2023-01-30T14:33:31.962Z,99136.97
2023-01-30T14:35:58.536Z,99151.91
2023-01-30T14:38:30.786Z,99157.91
2023-01-30T14:41:00.296Z,99136.25
2023-01-30T14:43:42.432Z,99135.47
2023-01-30T14:46:17.955Z,99133.03
2023-01-30T14:48:54.412Z,99141.06
2023-01-30T14:51:24.839Z,99133.31
2023-01-30T14:53:57.954Z,99132.38
2023-01-30T14:56:45.482Z,99120.31
2023-01-30T14:59:21.231Z,99126.72
2023-01-30T15:02:07.418Z,99144.91
2023-01-30T15:04:56.007Z,99125.78
2023-01-30T15:07:26.995Z,99147.53
2023-01-30T15:09:57.699Z,99138.78
2023-01-30T15:12:47.956Z,99138.38
2023-01-30T15:15:32.757Z,99147.47
2023-01-30T15:18:11.900Z,99151.69
2023-01-30T15:21:02.316Z,99145.75
2023-01-30T15:24:00.526Z,99167.81
2023-01-30T15:27:19.422Z,99185.03
2023-01-30T15:29:56.012Z,99164.78
2023-01-30T15:32:30.362Z,99180.72
2023-01-30T15:35:02.886Z,99186.41
2023-01-30T15:37:37.497Z,99193.88
2023-01-30T15:40:16.305Z,99204.97
2023-01-30T15:43:00.777Z,99225.44
2023-01-30T15:45:42.272Z,99225.31
2023-01-30T15:48:25.985Z,99246.41
2023-01-30T15:50:58.079Z,99247.59
2023-01-30T15:53:32.481Z,99259.09
2023-01-30T15:56:02.212Z,99245.69
2023-01-30T15:58:33.189Z,99259.75
2023-01-30T16:01:02.158Z,99256.38
2023-01-30T16:03:33.317Z,99254.25
2023-01-30T16:06:00.823Z,99258.78
2023-01-30T16:08:30.222Z,99258.31
2023-01-30T16:10:57.257Z,99257.34
2023-01-30T16:17:45.335Z,99262.22
2023-01-30T16:20:15.825Z,99260.41
2023-01-30T16:22:44.163Z,99260.09
2023-01-30T16:25:22.085Z,99262.53
2023-01-30T16:27:51.036Z,99254.91
2023-01-30T16:30:26.320Z,99276.28
2023-01-30T16:32:54.829Z,99270.78
2023-01-30T16:35:27.165Z,99266.72
2023-01-30T16:37:56.911Z,99267.88
2023-01-30T16:40:30.888Z,99282.78
2023-01-30T16:43:17.259Z,99270.47
2023-01-30T16:45:53.014Z,99263.00
2023-01-30T16:48:19.702Z,99272.09
2023-01-30T16:50:47.519Z,99273.06
2023-01-30T16:53:16.496Z,99286.00
2023-01-30T16:55:56.146Z,99273.66
2023-01-30T16:58:22.783Z,99289.56
2023-01-30T17:00:53.233Z,99293.44
2023-01-30T17:03:23.491Z,99295.72
2023-01-30T17:05:50.404Z,99297.34
2023-01-30T17:08:48.061Z,99296.03
2023-01-30T17:11:37.846Z,99303.19
2023-01-30T17:14:17.885Z,99303.03
2023-01-30T17:16:46.210Z,99310.16
2023-01-30T17:19:13.888Z,99309.00
2023-01-30T17:21:49.640Z,99318.25
2023-01-30T17:24:18.331Z,99322.81
2023-01-30T17:26:45.472Z,99316.47
2023-01-30T17:29:23.583Z,99311.94
2023-01-30T17:32:00.952Z,99295.59
2023-01-30T17:34:28.883Z,99303.84
2023-01-30T17:36:55.996Z,99308.38
2023-01-30T17:39:25.946Z,99303.34
2023-01-30T17:41:52.627Z,99308.38
2023-01-30T17:44:19.078Z,99331.41
2023-01-30T17:46:49.314Z,99330.09
2023-01-30T17:49:21.580Z,99323.28
2023-01-30T17:51:48.272Z,99326.53
2023-01-30T17:54:20.485Z,99327.03
2023-01-30T17:56:49.204Z,99342.22
2023-01-30T17:59:20.363Z,99359.72
2023-01-30T18:01:50.758Z,99365.88
2023-01-30T18:04:18.188Z,99359.41
2023-01-30T18:06:53.515Z,99343.03
2023-01-30T18:09:22.461Z,99365.56
2023-01-30T18:11:49.647Z,99383.72
2023-01-30T18:14:16.433Z,99377.75
2023-01-30T18:16:43.759Z,99388.59
2023-01-30T18:19:12.776Z,99377.44
2023-01-30T18:21:40.182Z,99383.41
2023-01-30T18:24:07.438Z,99398.34
2023-01-30T18:26:34.215Z,99399.47
2023-01-30T18:29:00.785Z,99411.13
2023-01-30T18:31:31.130Z,99403.19
2023-01-30T18:33:57.772Z,99400.75
2023-01-30T18:36:24.758Z,99422.66
2023-01-30T18:38:51.767Z,99429.13
2023-01-30T18:41:21.276Z,99437.56
2023-01-30T18:43:52.954Z,99449.41
2023-01-30T18:46:19.445Z,99455.06
2023-01-30T18:48:46.833Z,99450.38
2023-01-30T18:51:16.175Z,99465.44
2023-01-30T18:53:43.040Z,99455.06
2023-01-30T18:56:11.551Z,99461.41
2023-01-30T18:58:38.041Z,99459.63
2023-01-30T19:01:16.750Z,99474.69
2023-01-30T19:03:43.878Z,99473.41
2023-01-30T19:06:11.998Z,99485.72
2023-01-30T19:08:38.908Z,99492.06
2023-01-30T19:11:26.860Z,99496.59
2023-01-30T19:13:54.262Z,99499.84
2023-01-30T19:16:22.189Z,99491.44
2023-01-30T19:18:49.709Z,99507.16
2023-01-30T19:21:19.164Z,99522.91
2023-01-30T19:23:46.050Z,99531.97
2023-01-30T19:26:12.825Z,99520.47
2023-01-30T19:28:41.685Z,99531.00
2023-01-30T19:31:09.395Z,99536.53
2023-01-30T19:33:36.126Z,99538.63
2023-01-30T19:36:13.701Z,99544.47
2023-01-30T19:38:40.784Z,99555.50
2023-01-30T19:41:12.121Z,99561.03
2023-01-30T19:43:39.012Z,99574.66
2023-01-30T19:46:06.089Z,99567.03
2023-01-30T19:48:33.586Z,99572.72
2023-01-30T19:51:02.732Z,99562.00
2023-01-30T19:53:29.436Z,99581.16
2023-01-30T19:55:56.265Z,99589.91
2023-01-30T19:58:22.690Z,99589.31
2023-01-30T20:00:50.182Z,99591.22
2023-01-30T20:03:16.677Z,99577.94
2023-01-30T20:05:43.382Z,99603.25
2023-01-30T20:08:21.742Z,99600.34
2023-01-30T20:11:01.828Z,99599.19
2023-01-30T20:13:28.289Z,99616.25
2023-01-30T20:15:56.524Z,99616.91
2023-01-30T20:18:22.981Z,99625.19
2023-01-30T20:20:49.427Z,99607.97
2023-01-30T20:23:17.546Z,99600.81
2023-01-30T20:25:46.482Z,99616.25
2023-01-30T20:28:13.127Z,99627.94
2023-01-30T20:30:40.234Z,99623.56
2023-01-30T20:33:06.839Z,99628.41
2023-01-30T20:35:34.755Z,99625.34
2023-01-30T20:38:02.136Z,99627.13
2023-01-30T20:40:28.658Z,99625.50
2023-01-30T20:42:55.153Z,99620.78
2023-01-30T20:45:21.872Z,99641.25
2023-01-30T20:47:48.325Z,99640.59
2023-01-30T20:50:14.922Z,99639.09
2023-01-30T20:52:42.562Z,99649.31
2023-01-30T20:55:09.421Z,99657.41
2023-01-30T20:57:35.993Z,99644.41
2023-01-30T21:00:04.403Z,99663.25
2023-01-30T21:02:30.938Z,99664.38
2023-01-30T21:04:57.325Z,99677.50
2023-01-30T21:07:23.766Z,99676.06
2023-01-30T21:09:50.201Z,99687.59
2023-01-30T21:12:16.733Z,99686.44
2023-01-30T21:14:43.117Z,99684.16
2023-01-30T21:17:09.627Z,99693.38
2023-01-30T21:19:38.159Z,99694.81
2023-01-30T21:22:10.545Z,99706.88
2023-01-30T21:24:39.259Z,99698.94
2023-01-30T21:27:06.014Z,99696.84
2023-01-30T21:29:32.621Z,99709.19
2023-01-30T21:31:59.910Z,99704.97
2023-01-30T21:34:26.583Z,99714.56
2023-01-30T21:37:11.718Z,99707.91
2023-01-30T21:39:56.834Z,99707.56
2023-01-30T21:42:41.719Z,99722.19
2023-01-30T21:45:08.483Z,99718.09
2023-01-30T21:47:34.896Z,99727.81
2023-01-30T21:50:01.419Z,99744.53
2023-01-30T21:52:27.791Z,99739.56
2023-01-30T21:54:54.321Z,99752.00
2023-01-30T21:57:20.717Z,99753.53
2023-01-30T21:59:47.100Z,99755.59
2023-01-30T22:02:13.492Z,99758.84
2023-01-30T22:04:40.079Z,99752.66
2023-01-30T22:07:06.993Z,99773.38
2023-01-30T22:09:33.749Z,99760.59
2023-01-30T22:12:00.286Z,99767.13
2023-01-30T22:14:26.803Z,99763.13
2023-01-30T22:16:53.307Z,99767.03
2023-01-30T22:19:19.738Z,99766.22
2023-01-30T22:21:46.121Z,99765.38
2023-01-30T22:24:12.646Z,99766.81
2023-01-30T22:26:39.603Z,99772.31
2023-01-30T22:29:06.535Z,99773.03
2023-01-30T22:31:38.600Z,99789.16
2023-01-30T22:34:05.243Z,99788.03
2023-01-30T22:36:33.310Z,99788.53
2023-01-30T22:38:59.880Z,99796.91
2023-01-30T22:41:28.037Z,99810.00
2023-01-30T22:43:56.937Z,99825.22
2023-01-30T22:46:25.487Z,99826.84
2023-01-30T22:48:52.344Z,99818.06
2023-01-30T22:51:21.878Z,99822.59
2023-01-30T22:53:54.016Z,99829.84
2023-01-30T22:56:23.896Z,99821.31
2023-01-30T22:58:50.914Z,99819.69
2023-01-30T23:01:25.731Z,99836.50
2023-01-30T23:03:58.164Z,99838.56
2023-01-30T23:06:25.268Z,99832.31
2023-01-30T23:08:53.549Z,99838.03
2023-01-30T23:11:30.728Z,99850.56
2023-01-30T23:14:00.100Z,99847.69
2023-01-30T23:16:27.740Z,99850.00
2023-01-30T23:18:58.483Z,99844.00
2023-01-30T23:21:40.313Z,99837.25
2023-01-30T23:24:12.110Z,99833.75
2023-01-30T23:26:41.074Z,99830.88
2023-01-30T23:29:09.473Z,99838.03
2023-01-30T23:31:36.851Z,99844.16
2023-01-30T23:34:06.206Z,99851.50
2023-01-30T23:36:33.037Z,99845.00
2023-01-30T23:39:00.103Z,99844.13
2023-01-30T23:41:29.171Z,99847.78
2023-01-30T23:43:56.980Z,99843.34
2023-01-30T23:46:29.086Z,99841.41
2023-01-30T23:49:00.659Z,99839.56
2023-01-30T23:51:28.962Z,99848.56
2023-01-30T23:53:55.639Z,99856.94
2023-01-30T23:56:24.154Z,99845.72
2023-01-30T23:58:51.192Z,99837.66
